sensor_id;sensor_type;location;lat;lon;timestamp;temperature;humidity
5639;DHT22;2841;44.526;11.360;2022-08-01T00:01:34;25.80;55.60
5639;DHT22;2841;44.526;11.360;2022-08-01T00:04:02;25.70;55.70
5639;DHT22;2841;44.526;11.360;2022-08-01T00:06:29;25.70;55.80
5639;DHT22;2841;44.526;11.360;2022-08-01T00:08:58;25.60;55.90
5639;DHT22;2841;44.526;11.360;2022-08-01T00:11:25;25.60;56.10
5639;DHT22;2841;44.526;11.360;2022-08-01T00:13:52;25.60;56.10
5639;DHT22;2841;44.526;11.360;2022-08-01T00:17:22;25.60;56.20
5639;DHT22;2841;44.526;11.360;2022-08-01T00:19:07;25.60;56.20
5639;DHT22;2841;44.526;11.360;2022-08-01T00:21:34;25.50;56.30
5639;DHT22;2841;44.526;11.360;2022-08-01T00:24:03;25.40;56.40
5639;DHT22;2841;44.526;11.360;2022-08-01T00:26:30;25.40;56.50
5639;DHT22;2841;44.526;11.360;2022-08-01T00:28:57;25.30;56.60
5639;DHT22;2841;44.526;11.360;2022-08-01T00:31:24;25.30;56.60
5639;DHT22;2841;44.526;11.360;2022-08-01T00:33:51;25.30;56.70
5639;DHT22;2841;44.526;11.360;2022-08-01T00:36:18;25.30;56.70
5639;DHT22;2841;44.526;11.360;2022-08-01T00:38:45;25.30;56.80
5639;DHT22;2841;44.526;11.360;2022-08-01T00:41:13;25.20;56.80
5639;DHT22;2841;44.526;11.360;2022-08-01T00:43:40;25.10;56.90
5639;DHT22;2841;44.526;11.360;2022-08-01T00:46:07;25.10;57.00
5639;DHT22;2841;44.526;11.360;2022-08-01T00:48:34;25.00;57.10
5639;DHT22;2841;44.526;11.360;2022-08-01T00:51:09;25.10;57.40
5639;DHT22;2841;44.526;11.360;2022-08-01T00:53:37;25.20;57.00
5639;DHT22;2841;44.526;11.360;2022-08-01T00:56:04;25.30;57.00
5639;DHT22;2841;44.526;11.360;2022-08-01T00:58:33;25.40;57.40
5639;DHT22;2841;44.526;11.360;2022-08-01T01:01:00;25.40;56.80
5639;DHT22;2841;44.526;11.360;2022-08-01T01:03:27;25.40;56.90
5639;DHT22;2841;44.526;11.360;2022-08-01T01:06:01;25.40;56.80
5639;DHT22;2841;44.526;11.360;2022-08-01T01:08:35;25.40;56.60
5639;DHT22;2841;44.526;11.360;2022-08-01T01:11:09;25.40;56.50
5639;DHT22;2841;44.526;11.360;2022-08-01T01:13:43;25.40;56.40
5639;DHT22;2841;44.526;11.360;2022-08-01T01:16:13;25.40;56.40
5639;DHT22;2841;44.526;11.360;2022-08-01T01:18:45;25.40;56.40
5639;DHT22;2841;44.526;11.360;2022-08-01T01:21:38;25.40;56.40
5639;DHT22;2841;44.526;11.360;2022-08-01T01:24:17;25.50;56.10
5639;DHT22;2841;44.526;11.360;2022-08-01T01:26:52;25.50;55.90
5639;DHT22;2841;44.526;11.360;2022-08-01T01:29:26;25.50;55.90
5639;DHT22;2841;44.526;11.360;2022-08-01T01:31:59;25.50;55.90
5639;DHT22;2841;44.526;11.360;2022-08-01T01:34:29;25.50;55.70
5639;DHT22;2841;44.526;11.360;2022-08-01T01:36:58;25.60;55.60
5639;DHT22;2841;44.526;11.360;2022-08-01T01:39:28;25.50;55.40
5639;DHT22;2841;44.526;11.360;2022-08-01T01:41:58;25.40;55.50
5639;DHT22;2841;44.526;11.360;2022-08-01T01:44:27;25.40;55.50
5639;DHT22;2841;44.526;11.360;2022-08-01T01:46:56;25.40;55.40
5639;DHT22;2841;44.526;11.360;2022-08-01T01:49:26;25.50;55.30
5639;DHT22;2841;44.526;11.360;2022-08-01T01:51:56;25.50;55.00
5639;DHT22;2841;44.526;11.360;2022-08-01T01:54:27;25.60;54.90
5639;DHT22;2841;44.526;11.360;2022-08-01T01:56:55;25.60;54.60
5639;DHT22;2841;44.526;11.360;2022-08-01T01:59:28;25.60;54.30
5639;DHT22;2841;44.526;11.360;2022-08-01T02:01:57;25.60;54.20
5639;DHT22;2841;44.526;11.360;2022-08-01T02:04:25;25.40;54.30
5639;DHT22;2841;44.526;11.360;2022-08-01T02:06:53;25.40;54.50
5639;DHT22;2841;44.526;11.360;2022-08-01T02:09:21;25.40;54.30
5639;DHT22;2841;44.526;11.360;2022-08-01T02:11:50;25.50;54.00
5639;DHT22;2841;44.526;11.360;2022-08-01T02:14:19;25.60;53.70
5639;DHT22;2841;44.526;11.360;2022-08-01T02:16:49;25.70;53.40
5639;DHT22;2841;44.526;11.360;2022-08-01T02:19:17;25.70;53.20
5639;DHT22;2841;44.526;11.360;2022-08-01T02:21:48;25.70;53.00
5639;DHT22;2841;44.526;11.360;2022-08-01T02:24:33;25.70;52.80
5639;DHT22;2841;44.526;11.360;2022-08-01T02:27:06;25.80;52.50
5639;DHT22;2841;44.526;11.360;2022-08-01T02:29:39;25.80;52.20
5639;DHT22;2841;44.526;11.360;2022-08-01T02:32:13;25.80;52.00
5639;DHT22;2841;44.526;11.360;2022-08-01T02:34:42;25.80;51.90
5639;DHT22;2841;44.526;11.360;2022-08-01T02:37:10;25.80;51.80
5639;DHT22;2841;44.526;11.360;2022-08-01T02:39:38;25.80;51.70
5639;DHT22;2841;44.526;11.360;2022-08-01T02:42:08;25.80;51.60
5639;DHT22;2841;44.526;11.360;2022-08-01T02:44:39;25.70;51.40
5639;DHT22;2841;44.526;11.360;2022-08-01T02:47:09;25.70;51.30
5639;DHT22;2841;44.526;11.360;2022-08-01T02:49:41;25.70;51.30
5639;DHT22;2841;44.526;11.360;2022-08-01T02:52:12;25.70;51.20
5639;DHT22;2841;44.526;11.360;2022-08-01T02:54:40;25.70;51.20
5639;DHT22;2841;44.526;11.360;2022-08-01T02:57:09;25.70;51.10
5639;DHT22;2841;44.526;11.360;2022-08-01T02:59:38;25.70;51.10
5639;DHT22;2841;44.526;11.360;2022-08-01T03:02:06;25.70;51.10
5639;DHT22;2841;44.526;11.360;2022-08-01T03:04:37;25.70;51.00
5639;DHT22;2841;44.526;11.360;2022-08-01T03:07:07;25.70;50.90
5639;DHT22;2841;44.526;11.360;2022-08-01T03:09:37;25.60;50.90
5639;DHT22;2841;44.526;11.360;2022-08-01T03:12:09;25.60;51.00
5639;DHT22;2841;44.526;11.360;2022-08-01T03:14:39;25.60;51.00
5639;DHT22;2841;44.526;11.360;2022-08-01T03:17:08;25.50;51.00
5639;DHT22;2841;44.526;11.360;2022-08-01T03:19:38;25.50;51.00
5639;DHT22;2841;44.526;11.360;2022-08-01T03:22:07;25.50;51.00
5639;DHT22;2841;44.526;11.360;2022-08-01T03:24:36;25.50;51.10
5639;DHT22;2841;44.526;11.360;2022-08-01T03:27:06;25.50;51.10
5639;DHT22;2841;44.526;11.360;2022-08-01T03:29:34;25.40;51.10
5639;DHT22;2841;44.526;11.360;2022-08-01T03:32:03;25.40;51.10
5639;DHT22;2841;44.526;11.360;2022-08-01T03:34:31;25.40;51.10
5639;DHT22;2841;44.526;11.360;2022-08-01T03:37:03;25.50;51.00
5639;DHT22;2841;44.526;11.360;2022-08-01T03:39:43;25.50;51.00
5639;DHT22;2841;44.526;11.360;2022-08-01T03:42:15;25.40;50.90
5639;DHT22;2841;44.526;11.360;2022-08-01T03:44:48;25.40;51.00
5639;DHT22;2841;44.526;11.360;2022-08-01T03:47:22;25.40;51.00
5639;DHT22;2841;44.526;11.360;2022-08-01T03:49:52;25.30;51.10
5639;DHT22;2841;44.526;11.360;2022-08-01T03:52:22;25.30;51.10
5639;DHT22;2841;44.526;11.360;2022-08-01T03:54:51;25.30;51.10
5639;DHT22;2841;44.526;11.360;2022-08-01T03:57:20;25.30;51.10
5639;DHT22;2841;44.526;11.360;2022-08-01T03:59:49;25.20;51.10
5639;DHT22;2841;44.526;11.360;2022-08-01T04:02:16;25.10;51.20
5639;DHT22;2841;44.526;11.360;2022-08-01T04:04:44;25.10;51.30
5639;DHT22;2841;44.526;11.360;2022-08-01T04:07:23;25.10;51.30
5639;DHT22;2841;44.526;11.360;2022-08-01T04:09:50;25.10;51.30
5639;DHT22;2841;44.526;11.360;2022-08-01T04:12:17;25.10;51.40
5639;DHT22;2841;44.526;11.360;2022-08-01T04:14:45;25.10;51.30
5639;DHT22;2841;44.526;11.360;2022-08-01T04:17:12;25.10;51.40
5639;DHT22;2841;44.526;11.360;2022-08-01T04:19:39;25.10;51.40
5639;DHT22;2841;44.526;11.360;2022-08-01T04:22:06;25.10;51.30
5639;DHT22;2841;44.526;11.360;2022-08-01T04:24:36;25.10;51.30
5639;DHT22;2841;44.526;11.360;2022-08-01T04:27:08;25.10;51.30
5639;DHT22;2841;44.526;11.360;2022-08-01T04:29:37;25.10;51.30
5639;DHT22;2841;44.526;11.360;2022-08-01T04:32:07;25.10;51.20
5639;DHT22;2841;44.526;11.360;2022-08-01T04:34:39;25.10;51.20
5639;DHT22;2841;44.526;11.360;2022-08-01T04:37:08;25.20;51.20
5639;DHT22;2841;44.526;11.360;2022-08-01T04:39:37;25.20;51.10
5639;DHT22;2841;44.526;11.360;2022-08-01T04:42:07;25.20;51.10
5639;DHT22;2841;44.526;11.360;2022-08-01T04:44:35;25.30;51.10
5639;DHT22;2841;44.526;11.360;2022-08-01T04:47:04;25.30;51.00
5639;DHT22;2841;44.526;11.360;2022-08-01T04:49:33;25.40;50.90
5639;DHT22;2841;44.526;11.360;2022-08-01T04:52:01;25.40;50.80
5639;DHT22;2841;44.526;11.360;2022-08-01T04:54:30;25.50;50.80
5639;DHT22;2841;44.526;11.360;2022-08-01T04:57:00;25.50;50.80
5639;DHT22;2841;44.526;11.360;2022-08-01T04:59:27;25.60;50.70
5639;DHT22;2841;44.526;11.360;2022-08-01T05:02:08;25.60;50.60
5639;DHT22;2841;44.526;11.360;2022-08-01T05:04:36;25.70;50.70
5639;DHT22;2841;44.526;11.360;2022-08-01T05:07:04;25.70;50.50
5639;DHT22;2841;44.526;11.360;2022-08-01T05:09:31;25.70;50.50
5639;DHT22;2841;44.526;11.360;2022-08-01T05:11:59;25.80;50.50
5639;DHT22;2841;44.526;11.360;2022-08-01T05:14:28;25.80;50.40
5639;DHT22;2841;44.526;11.360;2022-08-01T05:16:57;25.80;50.30
5639;DHT22;2841;44.526;11.360;2022-08-01T05:19:25;25.90;50.30
5639;DHT22;2841;44.526;11.360;2022-08-01T05:21:52;26.00;50.20
5639;DHT22;2841;44.526;11.360;2022-08-01T05:24:23;26.00;50.20
5639;DHT22;2841;44.526;11.360;2022-08-01T05:26:50;26.10;50.10
5639;DHT22;2841;44.526;11.360;2022-08-01T05:29:18;26.20;50.10
5639;DHT22;2841;44.526;11.360;2022-08-01T05:31:45;26.20;49.90
5639;DHT22;2841;44.526;11.360;2022-08-01T05:34:12;26.30;50.40
5639;DHT22;2841;44.526;11.360;2022-08-01T05:36:40;26.30;49.70
5639;DHT22;2841;44.526;11.360;2022-08-01T05:39:07;26.40;49.70
5639;DHT22;2841;44.526;11.360;2022-08-01T05:44:20;26.60;49.70
5639;DHT22;2841;44.526;11.360;2022-08-01T05:46:47;26.60;49.60
5639;DHT22;2841;44.526;11.360;2022-08-01T05:49:13;26.70;49.60
5639;DHT22;2841;44.526;11.360;2022-08-01T05:51:40;26.60;49.50
5639;DHT22;2841;44.526;11.360;2022-08-01T05:54:07;26.60;49.50
5639;DHT22;2841;44.526;11.360;2022-08-01T05:56:34;26.50;49.60
5639;DHT22;2841;44.526;11.360;2022-08-01T05:59:02;26.50;49.60
5639;DHT22;2841;44.526;11.360;2022-08-01T06:01:30;26.60;49.60
5639;DHT22;2841;44.526;11.360;2022-08-01T06:03:57;26.60;49.50
5639;DHT22;2841;44.526;11.360;2022-08-01T06:06:25;26.70;49.50
5639;DHT22;2841;44.526;11.360;2022-08-01T06:08:52;26.80;49.40
5639;DHT22;2841;44.526;11.360;2022-08-01T06:11:19;26.80;49.30
5639;DHT22;2841;44.526;11.360;2022-08-01T06:13:51;26.80;49.30
5639;DHT22;2841;44.526;11.360;2022-08-01T06:16:18;26.90;49.20
5639;DHT22;2841;44.526;11.360;2022-08-01T06:18:47;26.90;49.20
5639;DHT22;2841;44.526;11.360;2022-08-01T06:21:13;27.00;49.20
5639;DHT22;2841;44.526;11.360;2022-08-01T06:23:41;27.00;49.10
5639;DHT22;2841;44.526;11.360;2022-08-01T06:26:08;27.10;49.20
5639;DHT22;2841;44.526;11.360;2022-08-01T06:28:35;27.20;49.30
5639;DHT22;2841;44.526;11.360;2022-08-01T06:31:03;27.20;49.20
5639;DHT22;2841;44.526;11.360;2022-08-01T06:33:29;27.30;49.30
5639;DHT22;2841;44.526;11.360;2022-08-01T06:35:58;27.40;49.30
5639;DHT22;2841;44.526;11.360;2022-08-01T06:38:25;27.50;49.30
5639;DHT22;2841;44.526;11.360;2022-08-01T06:40:52;27.50;49.20
5639;DHT22;2841;44.526;11.360;2022-08-01T06:43:19;27.60;49.10
5639;DHT22;2841;44.526;11.360;2022-08-01T06:45:46;27.70;49.10
5639;DHT22;2841;44.526;11.360;2022-08-01T06:48:13;27.70;49.00
5639;DHT22;2841;44.526;11.360;2022-08-01T06:50:40;27.80;49.00
5639;DHT22;2841;44.526;11.360;2022-08-01T06:53:09;27.90;49.00
5639;DHT22;2841;44.526;11.360;2022-08-01T06:55:36;28.00;48.80
5639;DHT22;2841;44.526;11.360;2022-08-01T06:58:04;28.10;48.60
5639;DHT22;2841;44.526;11.360;2022-08-01T07:00:34;28.10;48.30
5639;DHT22;2841;44.526;11.360;2022-08-01T07:03:01;28.10;48.20
5639;DHT22;2841;44.526;11.360;2022-08-01T07:05:28;28.20;48.10
5639;DHT22;2841;44.526;11.360;2022-08-01T07:07:56;28.30;48.00
5639;DHT22;2841;44.526;11.360;2022-08-01T07:10:25;28.30;47.80
5639;DHT22;2841;44.526;11.360;2022-08-01T07:12:52;28.40;47.60
5639;DHT22;2841;44.526;11.360;2022-08-01T07:15:19;28.40;47.40
5639;DHT22;2841;44.526;11.360;2022-08-01T07:17:51;28.40;47.30
5639;DHT22;2841;44.526;11.360;2022-08-01T07:20:19;28.50;47.10
5639;DHT22;2841;44.526;11.360;2022-08-01T07:22:46;28.60;47.00
5639;DHT22;2841;44.526;11.360;2022-08-01T07:25:12;28.70;46.90
5639;DHT22;2841;44.526;11.360;2022-08-01T07:27:41;28.70;46.70
5639;DHT22;2841;44.526;11.360;2022-08-01T07:30:09;28.70;46.70
5639;DHT22;2841;44.526;11.360;2022-08-01T07:32:36;28.70;46.70
5639;DHT22;2841;44.526;11.360;2022-08-01T07:35:03;28.70;46.70
5639;DHT22;2841;44.526;11.360;2022-08-01T07:37:30;28.80;46.70
5639;DHT22;2841;44.526;11.360;2022-08-01T07:39:57;28.80;46.60
5639;DHT22;2841;44.526;11.360;2022-08-01T07:42:24;29.00;46.60
5639;DHT22;2841;44.526;11.360;2022-08-01T07:44:52;29.00;46.40
5639;DHT22;2841;44.526;11.360;2022-08-01T07:47:23;29.10;46.40
5639;DHT22;2841;44.526;11.360;2022-08-01T07:49:50;29.20;46.40
5639;DHT22;2841;44.526;11.360;2022-08-01T07:52:17;29.30;46.40
5639;DHT22;2841;44.526;11.360;2022-08-01T07:54:44;29.40;46.40
5639;DHT22;2841;44.526;11.360;2022-08-01T07:57:11;29.50;46.30
5639;DHT22;2841;44.526;11.360;2022-08-01T07:59:38;29.60;46.30
5639;DHT22;2841;44.526;11.360;2022-08-01T08:02:06;29.70;46.30
5639;DHT22;2841;44.526;11.360;2022-08-01T08:04:33;29.80;46.10
5639;DHT22;2841;44.526;11.360;2022-08-01T08:07:00;29.80;46.10
5639;DHT22;2841;44.526;11.360;2022-08-01T08:09:27;29.90;46.10
5639;DHT22;2841;44.526;11.360;2022-08-01T08:11:54;30.00;46.70
5639;DHT22;2841;44.526;11.360;2022-08-01T08:14:21;30.10;46.00
5639;DHT22;2841;44.526;11.360;2022-08-01T08:16:49;30.20;45.90
5639;DHT22;2841;44.526;11.360;2022-08-01T08:19:18;30.30;45.80
5639;DHT22;2841;44.526;11.360;2022-08-01T08:21:45;30.40;45.80
5639;DHT22;2841;44.526;11.360;2022-08-01T08:24:12;30.60;45.80
5639;DHT22;2841;44.526;11.360;2022-08-01T08:26:50;30.70;45.60
5639;DHT22;2841;44.526;11.360;2022-08-01T08:29:18;30.80;45.50
5639;DHT22;2841;44.526;11.360;2022-08-01T08:31:45;30.90;45.50
5639;DHT22;2841;44.526;11.360;2022-08-01T08:34:12;30.90;45.40
5639;DHT22;2841;44.526;11.360;2022-08-01T08:36:41;30.90;45.30
5639;DHT22;2841;44.526;11.360;2022-08-01T08:39:08;31.00;45.30
5639;DHT22;2841;44.526;11.360;2022-08-01T08:41:35;31.10;45.30
5639;DHT22;2841;44.526;11.360;2022-08-01T08:44:02;31.10;45.20
5639;DHT22;2841;44.526;11.360;2022-08-01T08:46:31;31.20;45.20
5639;DHT22;2841;44.526;11.360;2022-08-01T08:49:00;31.20;45.30
5639;DHT22;2841;44.526;11.360;2022-08-01T08:51:30;31.30;45.20
5639;DHT22;2841;44.526;11.360;2022-08-01T08:53:59;31.30;45.00
5639;DHT22;2841;44.526;11.360;2022-08-01T08:56:27;31.30;44.90
5639;DHT22;2841;44.526;11.360;2022-08-01T08:58:56;31.40;45.00
5639;DHT22;2841;44.526;11.360;2022-08-01T09:01:23;31.50;45.00
5639;DHT22;2841;44.526;11.360;2022-08-01T09:03:50;31.60;45.00
5639;DHT22;2841;44.526;11.360;2022-08-01T09:06:17;31.60;44.80
5639;DHT22;2841;44.526;11.360;2022-08-01T09:08:44;31.60;44.70
5639;DHT22;2841;44.526;11.360;2022-08-01T09:11:13;31.70;44.70
5639;DHT22;2841;44.526;11.360;2022-08-01T09:13:40;31.80;44.60
5639;DHT22;2841;44.526;11.360;2022-08-01T09:16:07;31.90;44.40
5639;DHT22;2841;44.526;11.360;2022-08-01T09:18:35;32.00;44.20
5639;DHT22;2841;44.526;11.360;2022-08-01T09:21:11;32.10;44.20
5639;DHT22;2841;44.526;11.360;2022-08-01T09:23:41;32.20;44.20
5639;DHT22;2841;44.526;11.360;2022-08-01T09:26:10;32.40;44.20
5639;DHT22;2841;44.526;11.360;2022-08-01T09:28:39;32.60;44.10
5639;DHT22;2841;44.526;11.360;2022-08-01T09:31:08;32.70;44.00
5639;DHT22;2841;44.526;11.360;2022-08-01T09:33:49;32.80;43.80
5639;DHT22;2841;44.526;11.360;2022-08-01T09:36:16;32.90;43.70
5639;DHT22;2841;44.526;11.360;2022-08-01T09:38:43;32.90;43.60
5639;DHT22;2841;44.526;11.360;2022-08-01T09:41:10;33.00;43.50
5639;DHT22;2841;44.526;11.360;2022-08-01T09:43:39;33.10;43.20
5639;DHT22;2841;44.526;11.360;2022-08-01T09:46:10;33.20;43.00
5639;DHT22;2841;44.526;11.360;2022-08-01T09:48:38;33.40;42.70
5639;DHT22;2841;44.526;11.360;2022-08-01T09:51:06;33.50;42.40
5639;DHT22;2841;44.526;11.360;2022-08-01T09:53:46;33.50;42.20
5639;DHT22;2841;44.526;11.360;2022-08-01T09:56:14;33.70;42.00
5639;DHT22;2841;44.526;11.360;2022-08-01T09:58:53;33.80;41.70
5639;DHT22;2841;44.526;11.360;2022-08-01T10:01:21;34.00;41.50
5639;DHT22;2841;44.526;11.360;2022-08-01T10:04:05;34.00;41.10
5639;DHT22;2841;44.526;11.360;2022-08-01T10:06:32;34.10;40.90
5639;DHT22;2841;44.526;11.360;2022-08-01T10:08:59;34.20;40.60
5639;DHT22;2841;44.526;11.360;2022-08-01T10:11:26;34.20;40.50
5639;DHT22;2841;44.526;11.360;2022-08-01T10:13:59;34.20;40.40
5639;DHT22;2841;44.526;11.360;2022-08-01T10:16:27;34.40;40.30
5639;DHT22;2841;44.526;11.360;2022-08-01T10:18:55;34.50;40.20
5639;DHT22;2841;44.526;11.360;2022-08-01T10:21:23;34.70;40.10
5639;DHT22;2841;44.526;11.360;2022-08-01T10:23:54;34.70;39.90
5639;DHT22;2841;44.526;11.360;2022-08-01T10:26:22;34.80;40.00
5639;DHT22;2841;44.526;11.360;2022-08-01T10:28:51;35.00;39.90
5639;DHT22;2841;44.526;11.360;2022-08-01T10:31:20;35.20;39.70
5639;DHT22;2841;44.526;11.360;2022-08-01T10:33:49;35.30;39.50
5639;DHT22;2841;44.526;11.360;2022-08-01T10:36:18;35.30;39.10
5639;DHT22;2841;44.526;11.360;2022-08-01T10:38:46;35.30;39.00
5639;DHT22;2841;44.526;11.360;2022-08-01T10:41:13;35.40;38.90
5639;DHT22;2841;44.526;11.360;2022-08-01T10:43:42;35.50;38.60
5639;DHT22;2841;44.526;11.360;2022-08-01T10:46:10;35.60;38.50
5639;DHT22;2841;44.526;11.360;2022-08-01T10:48:44;35.70;38.40
5639;DHT22;2841;44.526;11.360;2022-08-01T10:51:13;35.80;38.30
5639;DHT22;2841;44.526;11.360;2022-08-01T10:53:46;35.90;38.10
5639;DHT22;2841;44.526;11.360;2022-08-01T10:56:14;36.00;37.70
5639;DHT22;2841;44.526;11.360;2022-08-01T10:58:44;36.10;37.50
5639;DHT22;2841;44.526;11.360;2022-08-01T11:01:21;36.00;37.20
5639;DHT22;2841;44.526;11.360;2022-08-01T11:04:17;35.90;36.80
5639;DHT22;2841;44.526;11.360;2022-08-01T11:07:02;36.00;36.70
5639;DHT22;2841;44.526;11.360;2022-08-01T11:09:31;36.10;36.50
5639;DHT22;2841;44.526;11.360;2022-08-01T11:12:07;36.30;36.40
5639;DHT22;2841;44.526;11.360;2022-08-01T11:15:19;36.60;36.20
5639;DHT22;2841;44.526;11.360;2022-08-01T11:17:54;36.90;35.90
5639;DHT22;2841;44.526;11.360;2022-08-01T11:20:24;37.00;35.60
5639;DHT22;2841;44.526;11.360;2022-08-01T11:26:14;37.00;35.00
5639;DHT22;2841;44.526;11.360;2022-08-01T11:28:43;37.10;34.90
5639;DHT22;2841;44.526;11.360;2022-08-01T11:31:30;37.10;34.60
5639;DHT22;2841;44.526;11.360;2022-08-01T11:33:58;37.20;34.50
5639;DHT22;2841;44.526;11.360;2022-08-01T11:36:27;37.50;34.30
5639;DHT22;2841;44.526;11.360;2022-08-01T11:39:17;37.50;34.00
5639;DHT22;2841;44.526;11.360;2022-08-01T11:41:47;37.60;33.90
5639;DHT22;2841;44.526;11.360;2022-08-01T11:44:20;37.70;33.60
5639;DHT22;2841;44.526;11.360;2022-08-01T11:46:59;37.80;33.40
5639;DHT22;2841;44.526;11.360;2022-08-01T11:52:29;38.10;32.70
5639;DHT22;2841;44.526;11.360;2022-08-01T11:55:05;38.30;32.60
5639;DHT22;2841;44.526;11.360;2022-08-01T11:57:34;38.40;32.30
5639;DHT22;2841;44.526;11.360;2022-08-01T12:00:05;38.50;32.20
5639;DHT22;2841;44.526;11.360;2022-08-01T12:02:36;38.70;32.20
5639;DHT22;2841;44.526;11.360;2022-08-01T12:05:05;39.10;31.90
5639;DHT22;2841;44.526;11.360;2022-08-01T12:07:36;39.30;31.40
5639;DHT22;2841;44.526;11.360;2022-08-01T12:10:06;39.30;31.10
5639;DHT22;2841;44.526;11.360;2022-08-01T12:12:35;39.50;30.90
5639;DHT22;2841;44.526;11.360;2022-08-01T12:15:04;39.50;30.60
5639;DHT22;2841;44.526;11.360;2022-08-01T12:17:34;39.60;30.30
5639;DHT22;2841;44.526;11.360;2022-08-01T12:20:02;39.80;30.10
5639;DHT22;2841;44.526;11.360;2022-08-01T12:22:30;39.80;30.00
5639;DHT22;2841;44.526;11.360;2022-08-01T12:25:06;39.60;29.90
5639;DHT22;2841;44.526;11.360;2022-08-01T12:27:34;39.60;29.90
5639;DHT22;2841;44.526;11.360;2022-08-01T12:30:03;39.80;29.90
5639;DHT22;2841;44.526;11.360;2022-08-01T12:32:32;40.10;29.80
5639;DHT22;2841;44.526;11.360;2022-08-01T12:35:02;40.20;29.60
5639;DHT22;2841;44.526;11.360;2022-08-01T12:37:30;40.40;29.40
5639;DHT22;2841;44.526;11.360;2022-08-01T12:39:57;40.60;29.30
5639;DHT22;2841;44.526;11.360;2022-08-01T12:42:25;40.80;29.20
5639;DHT22;2841;44.526;11.360;2022-08-01T12:44:53;40.90;29.00
5639;DHT22;2841;44.526;11.360;2022-08-01T12:47:21;40.80;29.40
5639;DHT22;2841;44.526;11.360;2022-08-01T12:49:49;40.80;28.80
5639;DHT22;2841;44.526;11.360;2022-08-01T12:52:17;40.80;28.80
5639;DHT22;2841;44.526;11.360;2022-08-01T12:55:08;40.70;28.90
5639;DHT22;2841;44.526;11.360;2022-08-01T12:57:39;40.70;29.00
5639;DHT22;2841;44.526;11.360;2022-08-01T13:00:09;40.60;28.80
5639;DHT22;2841;44.526;11.360;2022-08-01T13:02:37;40.40;28.90
5639;DHT22;2841;44.526;11.360;2022-08-01T13:05:05;40.70;28.80
5639;DHT22;2841;44.526;11.360;2022-08-01T13:07:47;40.80;28.50
5639;DHT22;2841;44.526;11.360;2022-08-01T13:10:23;40.90;28.30
5639;DHT22;2841;44.526;11.360;2022-08-01T13:12:54;41.00;28.20
5639;DHT22;2841;44.526;11.360;2022-08-01T13:15:27;41.10;28.10
5639;DHT22;2841;44.526;11.360;2022-08-01T13:17:58;41.10;27.90
5639;DHT22;2841;44.526;11.360;2022-08-01T13:20:28;41.10;27.80
5639;DHT22;2841;44.526;11.360;2022-08-01T13:22:55;41.10;27.70
5639;DHT22;2841;44.526;11.360;2022-08-01T13:25:46;41.10;27.70
5639;DHT22;2841;44.526;11.360;2022-08-01T13:28:20;41.20;27.60
5639;DHT22;2841;44.526;11.360;2022-08-01T13:30:52;41.20;27.40
5639;DHT22;2841;44.526;11.360;2022-08-01T13:33:19;41.00;27.60
5639;DHT22;2841;44.526;11.360;2022-08-01T13:35:46;41.10;27.60
5639;DHT22;2841;44.526;11.360;2022-08-01T13:38:13;41.30;27.60
5639;DHT22;2841;44.526;11.360;2022-08-01T13:40:40;41.60;27.50
5639;DHT22;2841;44.526;11.360;2022-08-01T13:43:07;41.80;27.40
5639;DHT22;2841;44.526;11.360;2022-08-01T13:45:35;41.60;27.30
5639;DHT22;2841;44.526;11.360;2022-08-01T13:48:04;41.30;27.40
5639;DHT22;2841;44.526;11.360;2022-08-01T13:50:31;41.20;27.50
5639;DHT22;2841;44.526;11.360;2022-08-01T13:52:58;41.20;27.40
5639;DHT22;2841;44.526;11.360;2022-08-01T13:55:25;41.30;27.30
5639;DHT22;2841;44.526;11.360;2022-08-01T13:57:52;41.30;27.30
5639;DHT22;2841;44.526;11.360;2022-08-01T14:00:20;41.40;27.20
5639;DHT22;2841;44.526;11.360;2022-08-01T14:02:48;41.60;27.10
5639;DHT22;2841;44.526;11.360;2022-08-01T14:05:15;41.70;27.00
5639;DHT22;2841;44.526;11.360;2022-08-01T14:07:42;41.90;26.80
5639;DHT22;2841;44.526;11.360;2022-08-01T14:10:10;41.90;26.60
5639;DHT22;2841;44.526;11.360;2022-08-01T14:12:37;41.80;26.60
5639;DHT22;2841;44.526;11.360;2022-08-01T14:15:05;41.70;26.70
5639;DHT22;2841;44.526;11.360;2022-08-01T14:17:32;41.70;26.90
5639;DHT22;2841;44.526;11.360;2022-08-01T14:20:01;41.80;26.70
5639;DHT22;2841;44.526;11.360;2022-08-01T14:22:30;42.00;26.70
5639;DHT22;2841;44.526;11.360;2022-08-01T14:25:02;42.30;26.60
5639;DHT22;2841;44.526;11.360;2022-08-01T14:27:29;42.70;26.50
5639;DHT22;2841;44.526;11.360;2022-08-01T14:29:57;43.00;26.40
5639;DHT22;2841;44.526;11.360;2022-08-01T14:32:24;43.20;26.20
5639;DHT22;2841;44.526;11.360;2022-08-01T14:34:51;43.10;26.20
5639;DHT22;2841;44.526;11.360;2022-08-01T14:37:19;43.10;26.20
5639;DHT22;2841;44.526;11.360;2022-08-01T14:39:46;43.10;25.90
5639;DHT22;2841;44.526;11.360;2022-08-01T14:42:13;42.90;25.70
5639;DHT22;2841;44.526;11.360;2022-08-01T14:44:40;42.60;25.50
5639;DHT22;2841;44.526;11.360;2022-08-01T14:47:07;42.80;25.50
5639;DHT22;2841;44.526;11.360;2022-08-01T14:49:34;43.10;25.30
5639;DHT22;2841;44.526;11.360;2022-08-01T14:52:01;43.40;25.10
5639;DHT22;2841;44.526;11.360;2022-08-01T14:54:29;43.40;24.80
5639;DHT22;2841;44.526;11.360;2022-08-01T14:56:56;43.50;24.70
5639;DHT22;2841;44.526;11.360;2022-08-01T14:59:23;43.60;24.50
5639;DHT22;2841;44.526;11.360;2022-08-01T15:01:50;43.90;24.40
5639;DHT22;2841;44.526;11.360;2022-08-01T15:04:37;44.00;24.10
5639;DHT22;2841;44.526;11.360;2022-08-01T15:07:04;43.90;24.10
5639;DHT22;2841;44.526;11.360;2022-08-01T15:09:32;44.00;24.00
5639;DHT22;2841;44.526;11.360;2022-08-01T15:11:59;44.30;23.80
5639;DHT22;2841;44.526;11.360;2022-08-01T15:14:26;44.40;23.70
5639;DHT22;2841;44.526;11.360;2022-08-01T15:17:11;44.30;23.60
5639;DHT22;2841;44.526;11.360;2022-08-01T15:19:38;44.30;23.60
5639;DHT22;2841;44.526;11.360;2022-08-01T15:22:04;44.60;23.60
5639;DHT22;2841;44.526;11.360;2022-08-01T15:24:33;44.80;23.60
5639;DHT22;2841;44.526;11.360;2022-08-01T15:27:00;45.00;23.50
5639;DHT22;2841;44.526;11.360;2022-08-01T15:29:27;45.30;23.40
5639;DHT22;2841;44.526;11.360;2022-08-01T15:31:54;45.30;23.30
5639;DHT22;2841;44.526;11.360;2022-08-01T15:34:22;45.30;23.30
5639;DHT22;2841;44.526;11.360;2022-08-01T15:36:49;45.30;23.30
5639;DHT22;2841;44.526;11.360;2022-08-01T15:39:16;45.00;23.30
5639;DHT22;2841;44.526;11.360;2022-08-01T15:41:44;44.90;23.30
5639;DHT22;2841;44.526;11.360;2022-08-01T15:44:11;44.90;23.20
5639;DHT22;2841;44.526;11.360;2022-08-01T15:46:38;45.00;23.20
5639;DHT22;2841;44.526;11.360;2022-08-01T15:49:05;45.00;23.20
5639;DHT22;2841;44.526;11.360;2022-08-01T15:51:33;45.00;23.20
5639;DHT22;2841;44.526;11.360;2022-08-01T15:54:00;45.00;23.20
5639;DHT22;2841;44.526;11.360;2022-08-01T15:56:28;45.30;23.20
5639;DHT22;2841;44.526;11.360;2022-08-01T15:58:57;45.30;23.20
5639;DHT22;2841;44.526;11.360;2022-08-01T16:01:24;45.10;23.30
5639;DHT22;2841;44.526;11.360;2022-08-01T16:03:51;45.00;23.70
5639;DHT22;2841;44.526;11.360;2022-08-01T16:06:18;44.80;24.10
5639;DHT22;2841;44.526;11.360;2022-08-01T16:08:45;44.80;24.40